Time;durP1;ratioP1;P1;durP2;ratioP2;P2;SDS_P1;SDS_P2;PMS_P1;PMS_P2;Temp;Humidity;BMP_temperature;BMP_pressure;BME280_temperature;BME280_humidity;BME280_pressure;Samples;Min_cycle;Max_cycle;Signal;HPM_P1;HPM_P2
2024/02/28 00:01:50;;;;;;;33.88;21.02;;;4.80;99.90;;;;;;4895232;29;20186;-77
2024/02/28 00:04:16;;;;;;;26.13;17.92;;;4.70;99.90;;;;;;4891652;29;20189;-77
2024/02/28 00:06:42;;;;;;;30.20;19.10;;;4.80;99.90;;;;;;4896081;29;20658;-77
2024/02/28 00:09:07;;;;;;;32.00;19.77;;;4.70;99.90;;;;;;4900044;29;20202;-77
2024/02/28 00:11:33;;;;;;;27.23;19.40;;;4.70;99.90;;;;;;4888797;29;20187;-77
2024/02/28 00:14:02;;;;;;;30.23;18.23;;;4.70;99.90;;;;;;4895332;29;20605;-77
2024/02/28 00:16:28;;;;;;;32.80;19.45;;;4.80;99.90;;;;;;4896226;29;20277;-77
2024/02/28 00:18:54;;;;;;;27.02;17.63;;;4.80;99.90;;;;;;4896567;29;20206;-77
2024/02/28 00:21:19;;;;;;;28.03;17.77;;;4.80;99.90;;;;;;4878878;29;20174;-77
2024/02/28 00:23:45;;;;;;;24.87;18.17;;;4.80;99.90;;;;;;4896889;29;20594;-77
2024/02/28 00:26:12;;;;;;;32.00;20.10;;;4.80;99.90;;;;;;4898851;29;20186;-77
2024/02/28 00:28:38;;;;;;;25.45;18.70;;;4.90;99.90;;;;;;4897514;29;20258;-77
2024/02/28 00:31:03;;;;;;;33.73;22.60;;;4.90;99.90;;;;;;4895232;29;20550;-77
2024/02/28 00:33:29;;;;;;;37.40;23.17;;;4.90;99.90;;;;;;4899209;29;20198;-77
2024/02/28 00:35:55;;;;;;;31.47;21.07;;;5.00;99.90;;;;;;4895565;29;20526;-77
2024/02/28 00:38:20;;;;;;;31.83;21.37;;;5.00;99.90;;;;;;4895231;29;20210;-77
2024/02/28 00:40:46;;;;;;;29.90;20.47;;;5.10;99.90;;;;;;4896424;29;20297;-77
2024/02/28 00:43:12;;;;;;;28.87;19.97;;;5.10;99.90;;;;;;4896275;29;20657;-77
2024/02/28 00:45:38;;;;;;;32.15;20.92;;;5.20;99.90;;;;;;4895971;29;20555;-77
2024/02/28 00:48:04;;;;;;;38.10;21.07;;;5.30;99.90;;;;;;4910695;29;20205;-77
2024/02/28 00:50:29;;;;;;;35.00;21.63;;;5.40;99.90;;;;;;4894614;29;20190;-77
2024/02/28 00:52:55;;;;;;;33.10;21.60;;;5.50;99.90;;;;;;4896818;29;20215;-77
2024/02/28 00:55:21;;;;;;;30.80;20.97;;;5.50;99.90;;;;;;4896222;29;20178;-77
2024/02/28 00:57:46;;;;;;;37.47;21.40;;;5.60;99.90;;;;;;4894516;29;20198;-77
2024/02/28 01:00:12;;;;;;;31.03;20.47;;;5.70;99.90;;;;;;4904713;29;20193;-77
2024/02/28 01:02:41;;;;;;;36.55;21.15;;;5.80;99.90;;;;;;4900275;29;20194;-76
2024/02/28 01:05:07;;;;;;;30.00;21.40;;;5.80;99.90;;;;;;4896056;29;20750;-77
2024/02/28 01:07:33;;;;;;;31.40;21.20;;;5.90;99.90;;;;;;4893884;29;20277;-77
2024/02/28 01:09:59;;;;;;;27.93;19.03;;;6.00;99.90;;;;;;4879123;29;20182;-77
2024/02/28 01:12:25;;;;;;;31.30;21.88;;;6.00;99.90;;;;;;4894552;29;20210;-77
2024/02/28 01:14:50;;;;;;;35.33;23.10;;;6.10;99.90;;;;;;4879176;29;20195;-77
2024/02/28 01:17:16;;;;;;;33.20;22.07;;;6.10;99.90;;;;;;4893342;29;20220;-77
2024/02/28 01:19:42;;;;;;;26.80;18.07;;;6.20;99.90;;;;;;4901896;29;20193;-77
2024/02/28 01:22:08;;;;;;;32.47;20.80;;;6.20;99.90;;;;;;4895558;29;20190;-76
2024/02/28 01:24:34;;;;;;;33.85;21.40;;;6.30;99.90;;;;;;4886690;29;20183;-77
2024/02/28 01:27:00;;;;;;;36.70;22.70;;;6.30;99.90;;;;;;4894851;29;20538;-77
2024/02/28 01:29:26;;;;;;;29.40;20.85;;;6.40;99.90;;;;;;4887789;29;20178;-77
2024/02/28 01:31:52;;;;;;;35.80;22.70;;;6.40;99.90;;;;;;4894097;29;20744;-77
2024/02/28 01:34:18;;;;;;;34.28;22.05;;;6.50;99.90;;;;;;4894327;29;20182;-77
2024/02/28 01:36:44;;;;;;;31.73;21.50;;;6.50;99.90;;;;;;4894991;29;20186;-77
2024/02/28 01:39:10;;;;;;;39.90;25.00;;;6.50;99.90;;;;;;4898963;29;20616;-77
2024/02/28 01:41:35;;;;;;;35.63;23.17;;;6.60;99.90;;;;;;4894646;29;20194;-77
2024/02/28 01:44:01;;;;;;;45.77;24.73;;;6.60;99.90;;;;;;4895752;29;20182;-77
2024/02/28 01:46:28;;;;;;;40.47;26.90;;;6.60;99.90;;;;;;4887268;29;20182;-77
2024/02/28 01:48:55;;;;;;;42.58;27.35;;;6.60;99.90;;;;;;4893308;29;20198;-77
2024/02/28 01:51:23;;;;;;;38.20;26.25;;;6.50;99.90;;;;;;4895194;29;20182;-77
2024/02/28 01:53:52;;;;;;;42.95;28.13;;;6.50;99.90;;;;;;4878491;29;20190;-77
2024/02/28 01:56:19;;;;;;;46.22;28.35;;;6.50;99.90;;;;;;4893244;29;20174;-77
2024/02/28 01:58:49;;;;;;;40.60;28.75;;;6.50;99.90;;;;;;4895069;29;20202;-77
2024/02/28 02:01:15;;;;;;;40.85;26.98;;;6.60;99.90;;;;;;4894895;29;20571;-77
2024/02/28 02:03:46;;;;;;;43.35;27.70;;;6.60;99.90;;;;;;4878331;29;20245;-77
2024/02/28 02:06:12;;;;;;;42.73;27.13;;;6.70;99.90;;;;;;4894961;29;20633;-77
2024/02/28 02:08:39;;;;;;;43.00;28.20;;;6.70;99.90;;;;;;4894887;29;20611;-77
2024/02/28 02:11:06;;;;;;;47.05;30.50;;;6.80;99.90;;;;;;4895101;29;20182;-77
2024/02/28 02:13:32;;;;;;;43.72;30.60;;;6.80;99.90;;;;;;4894075;29;20206;-77
2024/02/28 02:15:57;;;;;;;44.45;28.80;;;6.80;99.90;;;;;;4896539;29;20554;-77
2024/02/28 02:18:23;;;;;;;38.20;27.37;;;6.90;99.90;;;;;;4895854;29;20217;-77
2024/02/28 02:20:58;;;;;;;37.03;26.03;;;6.90;99.90;;;;;;4894594;29;20269;-77
2024/02/28 02:23:24;;;;;;;34.80;25.40;;;6.90;99.90;;;;;;4895218;29;20226;-77
2024/02/28 02:25:50;;;;;;;37.93;25.80;;;7.00;99.90;;;;;;4894461;29;20210;-77
2024/02/28 02:28:16;;;;;;;40.07;27.00;;;7.00;99.90;;;;;;4894521;29;20623;-77
2024/02/28 02:30:42;;;;;;;36.87;25.43;;;7.10;99.90;;;;;;4894548;29;20190;-77
2024/02/28 02:33:08;;;;;;;36.00;24.63;;;7.10;99.90;;;;;;4897652;29;20241;-76
2024/02/28 02:35:34;;;;;;;36.67;24.17;;;7.10;99.90;;;;;;4902935;29;20645;-77
2024/02/28 02:38:00;;;;;;;36.30;25.00;;;7.20;99.90;;;;;;4898085;29;21443;-77
2024/02/28 02:40:26;;;;;;;46.00;27.20;;;7.20;99.90;;;;;;4903794;29;20179;-78
2024/02/28 02:42:52;;;;;;;37.60;26.27;;;7.20;99.90;;;;;;4897823;29;20186;-78
2024/02/28 02:45:18;;;;;;;38.03;26.93;;;7.20;99.90;;;;;;4881551;29;20182;-77
2024/02/28 02:47:44;;;;;;;37.50;26.07;;;7.30;99.90;;;;;;4896872;29;20262;-78
2024/02/28 02:50:10;;;;;;;42.47;26.70;;;7.30;99.90;;;;;;4896863;29;20590;-77
2024/02/28 02:52:36;;;;;;;38.28;25.13;;;7.30;99.90;;;;;;4895976;29;20245;-78
2024/02/28 02:55:02;;;;;;;39.13;26.27;;;7.30;99.90;;;;;;4901089;29;20181;-77
2024/02/28 02:57:34;;;;;;;40.67;27.50;;;7.30;99.90;;;;;;4896623;29;20198;-77
2024/02/28 02:59:59;;;;;;;36.97;26.05;;;7.30;99.90;;;;;;4896373;29;20183;-77
2024/02/28 03:02:25;;;;;;;39.67;27.00;;;7.40;99.90;;;;;;4897953;29;20333;-77
2024/02/28 03:04:51;;;;;;;40.53;26.73;;;7.40;99.90;;;;;;4882287;29;20277;-78
2024/02/28 03:07:16;;;;;;;43.13;25.80;;;7.40;99.90;;;;;;4901326;29;20668;-78
2024/02/28 03:09:42;;;;;;;34.17;25.83;;;7.40;99.90;;;;;;4897314;29;20267;-78
2024/02/28 03:12:08;;;;;;;40.77;25.47;;;7.40;99.90;;;;;;4896566;29;20210;-78
2024/02/28 03:14:35;;;;;;;37.90;25.50;;;7.40;99.90;;;;;;4897875;29;20209;-78
2024/02/28 03:17:01;;;;;;;41.03;27.10;;;7.40;99.90;;;;;;4895750;29;20594;-78
2024/02/28 03:19:27;;;;;;;41.77;26.73;;;7.40;99.90;;;;;;4897180;29;20186;-78
2024/02/28 03:21:53;;;;;;;43.22;27.55;;;7.40;99.90;;;;;;4895578;29;20614;-78
2024/02/28 03:24:19;;;;;;;40.40;26.70;;;7.50;99.90;;;;;;4896657;29;20190;-78
2024/02/28 03:26:44;;;;;;;42.40;27.97;;;7.50;99.90;;;;;;4897007;29;20649;-78
2024/02/28 03:29:10;;;;;;;42.00;27.20;;;7.50;99.90;;;;;;4895660;29;20198;-77
2024/02/28 03:31:36;;;;;;;44.30;28.77;;;7.50;99.90;;;;;;4884240;29;20250;-78
2024/02/28 03:34:02;;;;;;;42.83;26.67;;;7.50;99.90;;;;;;4897332;29;21200;-78
2024/02/28 03:36:28;;;;;;;39.03;26.37;;;7.50;99.90;;;;;;4894925;29;20231;-78
2024/02/28 03:38:54;;;;;;;44.33;28.95;;;7.50;99.90;;;;;;4897011;29;20211;-77
2024/02/28 03:41:20;;;;;;;46.70;28.37;;;7.50;99.90;;;;;;4895491;29;20193;-78
2024/02/28 03:43:45;;;;;;;41.20;27.47;;;7.60;99.90;;;;;;4896814;29;20273;-77
2024/02/28 03:46:11;;;;;;;46.70;28.90;;;7.60;99.90;;;;;;4896392;29;20812;-78
2024/02/28 03:48:37;;;;;;;45.73;28.80;;;7.60;99.90;;;;;;4894324;29;20727;-78
2024/02/28 03:51:03;;;;;;;46.83;28.83;;;7.60;99.90;;;;;;4895222;29;20587;-78
2024/02/28 03:53:28;;;;;;;40.97;26.73;;;7.60;99.90;;;;;;4896931;29;20581;-77
2024/02/28 03:55:54;;;;;;;43.13;26.90;;;7.60;99.90;;;;;;4896339;29;20182;-78
2024/02/28 03:58:20;;;;;;;44.37;27.80;;;7.60;99.90;;;;;;4896939;29;20315;-78
2024/02/28 04:00:46;;;;;;;50.00;29.43;;;7.60;99.90;;;;;;4895313;29;20230;-78
2024/02/28 04:03:13;;;;;;;49.10;31.27;;;7.60;99.90;;;;;;4896933;29;20187;-78
2024/02/28 04:05:39;;;;;;;46.85;29.63;;;7.60;99.90;;;;;;4896667;29;20598;-78
2024/02/28 04:08:05;;;;;;;41.35;28.73;;;7.60;99.90;;;;;;4901013;29;20194;-78
2024/02/28 04:10:31;;;;;;;37.57;26.40;;;7.60;99.90;;;;;;4896994;29;20182;-78
2024/02/28 04:12:57;;;;;;;45.40;29.30;;;7.60;99.90;;;;;;4896845;29;21244;-78
2024/02/28 04:15:25;;;;;;;47.17;28.63;;;7.60;99.90;;;;;;4896993;29;20589;-78
2024/02/28 04:17:51;;;;;;;41.42;26.52;;;7.60;99.90;;;;;;4895725;29;20604;-78
2024/02/28 04:20:17;;;;;;;45.80;28.80;;;7.60;99.90;;;;;;4896352;29;20203;-78
2024/02/28 04:22:43;;;;;;;47.93;30.57;;;7.60;99.90;;;;;;4895385;29;20627;-78
2024/02/28 04:25:09;;;;;;;42.23;27.20;;;7.60;99.90;;;;;;4895458;29;20687;-78
2024/02/28 04:27:36;;;;;;;48.55;31.65;;;7.60;99.90;;;;;;4894868;29;20661;-78
2024/02/28 04:30:02;;;;;;;48.67;30.30;;;7.60;99.90;;;;;;4896108;29;20187;-78
2024/02/28 04:32:28;;;;;;;44.40;27.20;;;7.60;99.90;;;;;;4896229;29;20214;-78
2024/02/28 04:34:53;;;;;;;42.93;25.97;;;7.60;99.90;;;;;;4894753;29;20277;-77
2024/02/28 04:37:19;;;;;;;49.27;28.80;;;7.50;99.90;;;;;;4879119;29;20241;-78
2024/02/28 04:39:45;;;;;;;54.83;32.10;;;7.50;99.90;;;;;;4894660;29;20218;-78
2024/02/28 04:42:10;;;;;;;46.87;29.13;;;7.50;99.90;;;;;;4894853;29;20507;-78
2024/02/28 04:44:36;;;;;;;43.27;27.13;;;7.50;99.90;;;;;;4896436;29;20262;-78
2024/02/28 04:47:02;;;;;;;44.80;26.90;;;7.50;99.90;;;;;;4899097;29;20238;-77
2024/02/28 04:49:28;;;;;;;42.75;27.15;;;7.50;99.90;;;;;;4894718;29;20519;-78
2024/02/28 04:51:54;;;;;;;44.03;27.87;;;7.40;99.90;;;;;;4894468;29;20206;-78
2024/02/28 04:54:19;;;;;;;43.57;27.20;;;7.40;99.90;;;;;;4896152;29;20186;-78
2024/02/28 04:56:46;;;;;;;46.53;30.70;;;7.40;99.90;;;;;;4895689;29;20662;-77
2024/02/28 04:59:15;;;;;;;41.67;28.05;;;7.40;99.90;;;;;;4894380;29;20277;-77
2024/02/28 05:01:42;;;;;;;46.97;28.45;;;7.40;99.90;;;;;;4895422;29;20223;-78
2024/02/28 05:04:08;;;;;;;49.33;30.60;;;7.40;99.90;;;;;;4894771;29;20190;-77
2024/02/28 05:06:34;;;;;;;48.72;30.45;;;7.40;99.90;;;;;;4883354;29;20261;-78
2024/02/28 05:09:02;;;;;;;46.33;30.50;;;7.40;99.90;;;;;;4885949;29;20847;-77
2024/02/28 05:11:27;;;;;;;45.97;29.00;;;7.40;99.90;;;;;;4889072;29;20218;-77
2024/02/28 05:13:53;;;;;;;43.83;27.57;;;7.40;99.90;;;;;;4897995;29;20237;-77
2024/02/28 05:16:19;;;;;;;48.00;29.23;;;7.40;99.90;;;;;;4890153;29;20171;-77
2024/02/28 05:18:45;;;;;;;47.80;28.27;;;7.40;99.90;;;;;;4908282;29;20224;-77
2024/02/28 05:21:12;;;;;;;45.80;27.73;;;7.40;99.90;;;;;;4894097;29;20175;-78
2024/02/28 05:23:40;;;;;;;47.67;28.67;;;7.40;99.90;;;;;;4914618;29;20194;-78
2024/02/28 05:26:06;;;;;;;44.05;26.08;;;7.40;99.90;;;;;;4886123;29;20273;-78
2024/02/28 05:28:35;;;;;;;47.28;29.10;;;7.40;99.90;;;;;;4894202;29;20836;-77
2024/02/28 05:31:24;;;;;;;49.42;29.38;;;7.50;99.90;;;;;;4895066;29;21436;-78
2024/02/28 05:33:54;;;;;;;45.60;27.70;;;7.50;99.90;;;;;;4894356;29;20292;-78
2024/02/28 05:36:21;;;;;;;49.20;29.20;;;7.50;99.90;;;;;;4895240;29;20218;-78
2024/02/28 05:38:47;;;;;;;50.83;31.48;;;7.50;99.90;;;;;;4895644;29;20210;-78
2024/02/28 05:41:13;;;;;;;45.83;28.70;;;7.50;99.90;;;;;;4894062;29;20166;-78
2024/02/28 05:43:40;;;;;;;46.25;28.73;;;7.50;99.90;;;;;;4894237;29;20273;-78
2024/02/28 05:46:06;;;;;;;48.75;29.33;;;7.60;99.90;;;;;;4892944;29;20183;-78
2024/02/28 05:48:32;;;;;;;50.43;29.20;;;7.60;99.90;;;;;;4895751;29;20686;-78
2024/02/28 05:50:58;;;;;;;49.03;31.40;;;7.60;99.90;;;;;;4884797;29;20186;-78
2024/02/28 05:53:26;;;;;;;44.97;29.00;;;7.60;99.90;;;;;;4895073;29;20634;-78
2024/02/28 05:55:56;;;;;;;51.05;30.60;;;7.60;99.90;;;;;;4893552;29;20190;-78
2024/02/28 05:58:23;;;;;;;46.47;28.60;;;7.60;99.90;;;;;;4895402;29;20200;-78
2024/02/28 06:00:49;;;;;;;43.65;28.13;;;7.60;99.90;;;;;;4897764;29;20194;-77
2024/02/28 06:03:14;;;;;;;44.97;28.73;;;7.50;99.90;;;;;;4878834;29;20214;-77
2024/02/28 06:05:40;;;;;;;48.30;31.40;;;7.50;99.90;;;;;;4909271;29;20638;-77
2024/02/28 06:08:06;;;;;;;45.97;28.70;;;7.50;99.90;;;;;;4894182;29;20210;-77
2024/02/28 06:10:32;;;;;;;46.87;27.70;;;7.50;99.90;;;;;;4895850;29;20594;-77
2024/02/28 06:12:57;;;;;;;49.63;30.20;;;7.50;99.90;;;;;;4895677;29;20265;-77
2024/02/28 06:15:23;;;;;;;43.60;27.97;;;7.50;99.90;;;;;;4894782;29;20174;-77
2024/02/28 06:17:49;;;;;;;42.43;26.53;;;7.40;99.90;;;;;;4896857;29;20305;-79
2024/02/28 06:20:15;;;;;;;46.37;26.73;;;7.40;99.90;;;;;;4882194;29;20174;-79
2024/02/28 06:22:48;;;;;;;46.20;27.00;;;7.40;99.90;;;;;;4897051;29;20605;-80
2024/02/28 06:25:19;;;;;;;44.75;28.40;;;7.40;99.90;;;;;;4890789;29;20531;-79
2024/02/28 06:27:45;;;;;;;47.95;30.08;;;7.40;99.90;;;;;;4896833;29;20213;-80
2024/02/28 06:30:14;;;;;;;42.85;26.95;;;7.40;99.90;;;;;;4897253;29;20185;-80
2024/02/28 06:32:40;;;;;;;50.05;28.42;;;7.30;99.90;;;;;;4897068;29;20218;-80
2024/02/28 06:35:07;;;;;;;49.07;28.73;;;7.30;99.90;;;;;;4897402;29;20185;-79
2024/02/28 06:37:33;;;;;;;41.92;27.55;;;7.30;99.90;;;;;;4902148;29;20625;-80
2024/02/28 06:40:00;;;;;;;43.28;24.83;;;7.30;99.90;;;;;;4897275;29;20241;-80
2024/02/28 06:42:25;;;;;;;43.35;26.98;;;7.30;99.90;;;;;;4898343;29;20178;-79
2024/02/28 06:44:51;;;;;;;37.70;26.63;;;7.20;99.90;;;;;;4897001;29;20190;-79
2024/02/28 06:47:18;;;;;;;44.03;26.63;;;7.20;99.90;;;;;;4897051;29;20706;-79
2024/02/28 06:49:44;;;;;;;44.85;25.40;;;7.20;99.90;;;;;;4897216;29;20246;-79
2024/02/28 06:52:10;;;;;;;42.80;28.98;;;7.20;99.90;;;;;;4896209;29;20268;-79
2024/02/28 06:54:35;;;;;;;44.53;27.17;;;7.20;99.90;;;;;;4881593;29;20190;-78
2024/02/28 06:57:02;;;;;;;47.70;26.73;;;7.20;99.90;;;;;;4896583;29;20276;-79
2024/02/28 06:59:28;;;;;;;45.00;28.00;;;7.30;99.90;;;;;;4898083;29;20178;-79
2024/02/28 07:01:54;;;;;;;43.63;26.57;;;7.30;99.90;;;;;;4898263;29;20273;-79
2024/02/28 07:04:20;;;;;;;41.63;24.40;;;7.30;99.90;;;;;;4897443;29;20919;-78
2024/02/28 07:06:46;;;;;;;42.47;26.10;;;7.30;99.90;;;;;;4897656;29;20582;-79
2024/02/28 07:09:12;;;;;;;45.77;27.17;;;7.40;99.90;;;;;;4890170;29;20607;-80
2024/02/28 07:11:38;;;;;;;43.13;26.20;;;7.40;99.90;;;;;;4897876;29;20543;-79
2024/02/28 07:14:05;;;;;;;44.42;28.42;;;7.40;99.90;;;;;;4900466;29;20190;-79
2024/02/28 07:16:33;;;;;;;42.15;26.67;;;7.50;99.90;;;;;;4897127;29;20210;-80
2024/02/28 07:19:03;;;;;;;42.67;27.02;;;7.50;99.90;;;;;;4897521;29;20249;-80
2024/02/28 07:21:30;;;;;;;44.25;26.35;;;7.50;99.90;;;;;;4894428;29;20195;-80
2024/02/28 07:23:56;;;;;;;42.13;27.25;;;7.60;99.90;;;;;;4897550;29;20277;-80
2024/02/28 07:26:22;;;;;;;43.00;27.50;;;7.60;99.90;;;;;;4896789;29;20262;-79
2024/02/28 07:28:49;;;;;;;47.13;29.57;;;7.70;99.90;;;;;;4896379;29;20622;-79
2024/02/28 07:31:16;;;;;;;45.97;27.45;;;7.70;99.90;;;;;;4897355;29;20189;-79
2024/02/28 07:33:42;;;;;;;42.63;28.83;;;7.80;99.90;;;;;;4896393;29;20232;-78
2024/02/28 07:36:08;;;;;;;43.10;27.17;;;7.80;99.90;;;;;;4896161;29;20261;-79
2024/02/28 07:38:34;;;;;;;46.63;26.83;;;7.90;99.90;;;;;;4899482;29;20205;-81
2024/02/28 07:40:59;;;;;;;45.37;28.37;;;7.90;99.90;;;;;;4889474;29;20218;-81
2024/02/28 07:43:25;;;;;;;45.87;27.00;;;8.00;99.90;;;;;;4897082;29;20273;-80
2024/02/28 07:45:51;;;;;;;42.83;25.10;;;8.00;99.90;;;;;;4902626;29;20192;-80
2024/02/28 07:48:25;;;;;;;44.30;26.30;;;8.10;99.90;;;;;;4890439;29;20210;-80
2024/02/28 07:50:54;;;;;;;45.53;27.85;;;8.10;99.90;;;;;;4865032;29;20269;-77
2024/02/28 07:53:19;;;;;;;48.57;27.97;;;8.10;99.90;;;;;;4882280;29;20296;-77
2024/02/28 07:55:45;;;;;;;46.57;29.10;;;8.20;99.90;;;;;;4895065;29;20239;-77
2024/02/28 07:58:11;;;;;;;48.30;27.53;;;8.20;99.90;;;;;;4893664;29;20250;-77
2024/02/28 08:01:22;;;;;;;43.77;30.53;;;8.30;99.90;;;;;;4895596;29;20289;-78
2024/02/28 08:03:53;;;;;;;41.20;26.17;;;8.30;99.90;;;;;;4896565;29;20186;-76
2024/02/28 08:06:19;;;;;;;40.22;24.60;;;8.40;99.90;;;;;;4876135;29;20545;-77
2024/02/28 08:08:48;;;;;;;44.47;27.20;;;8.50;99.90;;;;;;4895788;29;20199;-78
2024/02/28 08:11:14;;;;;;;40.05;26.58;;;8.60;99.90;;;;;;4909376;29;20186;-78
2024/02/28 08:13:40;;;;;;;37.73;26.77;;;8.70;99.90;;;;;;4899888;29;20212;-76
2024/02/28 08:16:08;;;;;;;48.10;27.93;;;8.80;99.90;;;;;;4893856;29;20646;-78
2024/02/28 08:18:43;;;;;;;42.20;27.20;;;8.90;99.90;;;;;;4883856;29;20249;-76
2024/02/28 08:21:14;;;;;;;40.92;25.67;;;9.00;99.90;;;;;;4895347;29;20181;-78
2024/02/28 08:23:49;;;;;;;42.42;25.83;;;9.10;99.90;;;;;;4902390;29;20256;-77
2024/02/28 08:26:15;;;;;;;46.90;31.00;;;9.20;99.90;;;;;;4893215;29;20186;-77
2024/02/28 08:28:41;;;;;;;43.10;27.97;;;9.20;99.90;;;;;;4898539;29;20573;-78
2024/02/28 08:31:06;;;;;;;49.03;31.10;;;9.30;99.90;;;;;;4879391;29;20637;-78
2024/02/28 08:33:32;;;;;;;52.83;33.03;;;9.30;99.90;;;;;;4879779;29;20217;-78
2024/02/28 08:35:58;;;;;;;49.50;31.07;;;9.30;99.90;;;;;;4895896;29;20262;-77
2024/02/28 08:38:24;;;;;;;45.40;27.07;;;9.40;99.90;;;;;;4896066;29;20287;-79
2024/02/28 08:40:50;;;;;;;45.80;29.00;;;9.60;99.90;;;;;;4895087;29;20238;-79
2024/02/28 08:43:15;;;;;;;45.60;29.47;;;9.70;99.90;;;;;;4894894;29;20186;-79
2024/02/28 08:45:41;;;;;;;52.13;31.87;;;9.90;99.90;;;;;;4896004;29;20269;-80
2024/02/28 08:48:07;;;;;;;47.20;29.53;;;9.90;99.90;;;;;;4894424;29;20207;-76
2024/02/28 08:50:33;;;;;;;44.30;29.70;;;10.00;99.90;;;;;;4905363;29;20246;-78
2024/02/28 08:52:58;;;;;;;39.57;29.30;;;9.90;99.90;;;;;;4895624;29;20745;-78
2024/02/28 08:55:24;;;;;;;44.60;28.00;;;10.00;99.90;;;;;;4896911;29;20681;-78
2024/02/28 08:57:50;;;;;;;39.20;26.20;;;10.00;99.90;;;;;;4888257;29;20200;-78
2024/02/28 09:00:17;;;;;;;34.20;25.43;;;10.00;99.90;;;;;;4896282;29;20596;-78
2024/02/28 09:02:43;;;;;;;39.80;27.20;;;9.90;99.90;;;;;;4895618;29;20193;-78
2024/02/28 09:05:09;;;;;;;38.80;27.10;;;10.00;99.90;;;;;;4895331;29;20254;-78
2024/02/28 09:07:38;;;;;;;42.73;28.10;;;10.10;99.90;;;;;;4897766;29;20213;-78
2024/02/28 09:10:05;;;;;;;41.78;30.42;;;10.10;99.90;;;;;;4906031;29;20178;-78
2024/02/28 09:12:31;;;;;;;36.20;26.77;;;10.20;99.90;;;;;;4894100;29;20197;-78
2024/02/28 09:14:58;;;;;;;43.37;29.00;;;10.20;99.90;;;;;;4895258;29;20679;-78
2024/02/28 09:17:24;;;;;;;38.08;25.60;;;10.20;99.90;;;;;;4894699;29;20623;-77
2024/02/28 09:19:50;;;;;;;40.37;26.57;;;10.20;99.90;;;;;;4895187;29;20190;-78
2024/02/28 09:22:17;;;;;;;38.10;25.77;;;10.30;99.90;;;;;;4894913;29;20213;-78
2024/02/28 09:24:43;;;;;;;40.88;27.05;;;10.30;99.90;;;;;;4894847;29;20249;-78
2024/02/28 09:27:09;;;;;;;38.25;26.00;;;10.30;99.90;;;;;;4893033;29;20194;-78
2024/02/28 09:29:34;;;;;;;36.40;27.27;;;10.30;99.90;;;;;;4893641;29;20183;-78
2024/02/28 09:32:00;;;;;;;41.17;27.70;;;10.30;99.90;;;;;;4895104;29;20277;-78
2024/02/28 09:34:26;;;;;;;41.83;30.15;;;10.30;99.90;;;;;;4895012;29;20178;-78
2024/02/28 09:36:52;;;;;;;36.00;27.97;;;10.30;99.90;;;;;;4894485;29;20530;-78
2024/02/28 09:39:18;;;;;;;37.80;25.50;;;10.40;99.90;;;;;;4895216;29;20175;-78
2024/02/28 09:41:47;;;;;;;38.27;27.30;;;10.40;99.90;;;;;;4896972;29;20634;-78
2024/02/28 09:44:15;;;;;;;40.80;27.27;;;10.50;99.90;;;;;;4897788;29;20285;-78
2024/02/28 09:46:42;;;;;;;38.70;27.52;;;10.60;99.90;;;;;;4897554;29;20206;-78
2024/02/28 09:49:10;;;;;;;36.28;24.88;;;10.80;99.90;;;;;;4897617;29;20284;-78
2024/02/28 09:51:36;;;;;;;40.88;28.85;;;10.90;99.90;;;;;;4901405;29;20699;-78
2024/02/28 09:54:03;;;;;;;42.90;28.57;;;10.90;99.90;;;;;;4901322;29;20257;-78
2024/02/28 09:56:29;;;;;;;43.70;29.17;;;11.00;99.90;;;;;;4896125;29;20609;-78
2024/02/28 09:58:56;;;;;;;42.77;29.57;;;11.00;99.90;;;;;;4900065;29;20197;-78
2024/02/28 10:01:25;;;;;;;48.60;31.85;;;11.10;99.90;;;;;;4904810;29;20642;-78
2024/02/28 10:03:52;;;;;;;46.45;30.83;;;11.20;99.90;;;;;;4898145;29;20797;-78
2024/02/28 10:06:19;;;;;;;40.08;31.27;;;11.30;99.90;;;;;;4881203;29;20188;-78
2024/02/28 10:08:47;;;;;;;44.87;32.50;;;11.60;99.90;;;;;;4897989;29;20221;-78
2024/02/28 10:11:24;;;;;;;44.95;31.77;;;11.80;99.90;;;;;;4897758;29;20945;-78
2024/02/28 10:13:50;;;;;;;41.25;28.45;;;11.80;99.90;;;;;;4900793;29;20213;-78
2024/02/28 10:16:16;;;;;;;42.63;29.10;;;11.80;99.90;;;;;;4897579;29;20295;-78
2024/02/28 10:18:45;;;;;;;38.60;28.60;;;12.10;99.90;;;;;;4900842;29;20630;-79
2024/02/28 10:21:20;;;;;;;40.17;29.83;;;12.50;99.90;;;;;;4899406;29;20603;-78
2024/02/28 10:23:46;;;;;;;40.63;28.67;;;12.70;99.90;;;;;;4898459;29;20740;-78
2024/02/28 10:26:13;;;;;;;43.07;31.53;;;12.70;99.90;;;;;;4911548;29;21196;-78
2024/02/28 10:28:40;;;;;;;40.47;28.57;;;12.60;99.90;;;;;;4897958;29;20622;-78
2024/02/28 10:31:10;;;;;;;33.50;26.30;;;12.50;99.90;;;;;;4896207;29;20638;-78
2024/02/28 10:33:36;;;;;;;40.63;30.93;;;12.50;99.90;;;;;;4900677;29;20645;-78
2024/02/28 10:36:05;;;;;;;38.77;28.40;;;12.50;99.90;;;;;;4895235;29;20590;-77
2024/02/28 10:38:36;;;;;;;43.90;31.43;;;12.40;99.90;;;;;;4899069;29;20662;-78
2024/02/28 10:41:02;;;;;;;38.80;26.30;;;12.40;99.90;;;;;;4896045;29;20599;-78
2024/02/28 10:43:31;;;;;;;47.27;34.37;;;12.50;99.90;;;;;;4897564;29;20598;-77
2024/02/28 10:46:00;;;;;;;38.72;30.35;;;12.60;99.90;;;;;;4895425;29;21171;-78
2024/02/28 10:48:27;;;;;;;41.30;31.77;;;12.60;99.90;;;;;;4891767;29;20214;-77
2024/02/28 10:50:56;;;;;;;38.27;28.23;;;12.70;99.90;;;;;;4897239;29;20689;-76
2024/02/28 10:53:40;;;;;;;39.50;29.27;;;12.90;99.90;;;;;;4897243;29;20630;-77
2024/02/28 10:56:07;;;;;;;43.57;33.17;;;13.20;99.90;;;;;;4895798;29;20965;-78
2024/02/28 10:58:50;;;;;;;40.47;30.27;;;13.30;99.90;;;;;;4899802;29;20622;-78
2024/02/28 11:01:16;;;;;;;37.00;28.27;;;13.30;99.90;;;;;;4895888;29;20709;-78
2024/02/28 11:03:44;;;;;;;56.07;34.37;;;13.40;99.90;;;;;;4896749;29;20649;-78
2024/02/28 11:06:21;;;;;;;36.00;27.20;;;13.20;99.90;;;;;;4895941;29;21027;-78
2024/02/28 11:08:54;;;;;;;38.10;28.60;;;13.20;99.90;;;;;;4896996;29;20633;-77
2024/02/28 11:11:21;;;;;;;40.37;30.40;;;13.40;99.90;;;;;;4894166;29;20633;-79
2024/02/28 11:13:54;;;;;;;37.80;28.13;;;13.50;99.90;;;;;;4896849;29;21063;-78
2024/02/28 11:16:33;;;;;;;35.23;26.23;;;13.80;99.90;;;;;;4895303;29;20599;-78
2024/02/28 11:19:01;;;;;;;38.10;29.00;;;14.00;99.90;;;;;;4895049;29;20729;-78
2024/02/28 11:21:27;;;;;;;34.90;26.23;;;14.20;99.90;;;;;;4889242;29;20606;-78
2024/02/28 11:24:00;;;;;;;32.00;26.33;;;14.50;99.90;;;;;;4895575;29;20587;-78
2024/02/28 11:26:27;;;;;;;34.87;26.37;;;14.90;99.90;;;;;;4895116;29;20634;-78
2024/02/28 11:28:56;;;;;;;39.30;30.07;;;15.20;99.90;;;;;;4897525;29;20622;-76
2024/02/28 11:31:22;;;;;;;38.40;29.70;;;15.40;99.90;;;;;;4896509;29;21037;-76
2024/02/28 11:33:48;;;;;;;35.30;27.67;;;15.40;99.90;;;;;;4897214;29;20630;-76
2024/02/28 11:36:14;;;;;;;31.30;25.43;;;15.20;99.90;;;;;;4896936;29;20626;-78
2024/02/28 11:38:41;;;;;;;31.23;24.37;;;15.40;99.90;;;;;;4896187;29;20202;-79
2024/02/28 11:41:07;;;;;;;32.60;27.80;;;15.50;99.90;;;;;;4896319;29;20755;-78
2024/02/28 11:43:36;;;;;;;33.77;26.07;;;15.50;99.90;;;;;;4911130;29;20614;-76
2024/02/28 11:46:08;;;;;;;30.77;24.70;;;15.50;99.90;;;;;;4895744;29;20658;-75
2024/02/28 11:48:33;;;;;;;24.07;19.03;;;15.50;99.90;;;;;;4894686;29;20670;-75
2024/02/28 11:50:59;;;;;;;32.93;26.93;;;15.60;99.90;;;;;;4910767;29;20639;-76
2024/02/28 11:53:28;;;;;;;38.40;27.27;;;15.60;99.90;;;;;;4896203;29;20218;-76
2024/02/28 11:55:55;;;;;;;29.73;24.80;;;15.70;99.90;;;;;;4895789;29;20718;-75
2024/02/28 11:58:21;;;;;;;30.40;25.20;;;15.90;99.90;;;;;;4896119;29;20650;-75
2024/02/28 12:00:51;;;;;;;29.97;25.17;;;16.20;99.90;;;;;;4895106;29;20599;-76
2024/02/28 12:03:24;;;;;;;30.40;25.50;;;16.40;99.90;;;;;;4895658;29;20598;-76
2024/02/28 12:05:51;;;;;;;28.10;23.80;;;16.60;99.90;;;;;;4895745;29;20663;-75
2024/02/28 12:08:20;;;;;;;30.03;25.27;;;16.70;99.90;;;;;;4893465;29;20632;-76
2024/02/28 12:10:46;;;;;;;28.63;23.50;;;16.70;99.90;;;;;;4878409;29;20618;-76
2024/02/28 12:13:19;;;;;;;29.67;23.80;;;16.60;99.90;;;;;;4899465;29;20692;-76
2024/02/28 12:15:45;;;;;;;27.77;22.57;;;16.40;99.90;;;;;;4892919;29;20630;-78
2024/02/28 12:18:12;;;;;;;25.57;21.50;;;16.30;99.90;;;;;;4895060;29;20681;-78
2024/02/28 12:20:38;;;;;;;35.27;23.87;;;16.30;99.90;;;;;;4897314;29;20607;-78
2024/02/28 12:23:04;;;;;;;25.43;21.27;;;16.40;99.90;;;;;;4895678;29;20590;-76
2024/02/28 12:25:30;;;;;;;29.10;23.70;;;16.50;99.90;;;;;;4895834;29;20308;-76
2024/02/28 12:27:56;;;;;;;26.30;22.00;;;16.50;99.90;;;;;;4893736;29;21025;-78
2024/02/28 12:30:22;;;;;;;25.43;21.30;;;16.60;99.90;;;;;;4899885;29;20665;-77
2024/02/28 12:32:48;;;;;;;24.43;21.30;;;16.70;99.90;;;;;;4894050;29;20205;-77